createdAt,value
2018-12-18T00:01:32.495Z,5.50
2018-12-18T00:04:00.049Z,5.50
2018-12-18T00:06:27.603Z,5.50
2018-12-18T00:08:55.180Z,5.50
2018-12-18T00:11:22.766Z,5.50
2018-12-18T00:13:50.375Z,5.50
2018-12-18T00:16:17.940Z,5.50
2018-12-18T00:18:45.508Z,5.60
2018-12-18T00:21:13.101Z,5.60
2018-12-18T00:23:40.679Z,5.60
2018-12-18T00:26:08.277Z,5.60
2018-12-18T00:28:35.858Z,5.60
2018-12-18T00:31:04.252Z,5.60
2018-12-18T00:33:31.827Z,5.60
2018-12-18T00:35:59.379Z,5.60
2018-12-18T00:38:27.148Z,5.60
2018-12-18T00:40:54.729Z,5.70
2018-12-18T00:43:22.279Z,5.70
2018-12-18T00:45:50.075Z,5.70
2018-12-18T00:48:17.964Z,5.70
2018-12-18T00:50:45.511Z,5.70
2018-12-18T00:53:13.116Z,5.70
2018-12-18T00:55:40.692Z,5.70
2018-12-18T00:58:08.247Z,5.70
2018-12-18T01:00:35.835Z,5.70
2018-12-18T01:03:03.448Z,5.70
2018-12-18T01:05:31.273Z,5.70
2018-12-18T01:07:58.862Z,5.70
2018-12-18T01:10:26.479Z,5.70
2018-12-18T01:12:54.040Z,5.70
2018-12-18T01:15:21.637Z,5.70
2018-12-18T01:17:49.724Z,5.80
2018-12-18T01:20:18.217Z,5.70
2018-12-18T01:22:45.808Z,5.70
2018-12-18T01:25:13.431Z,5.80
2018-12-18T01:27:41.050Z,5.80
2018-12-18T01:30:08.706Z,5.80
2018-12-18T01:32:36.895Z,5.80
2018-12-18T01:35:05.350Z,5.80
2018-12-18T01:37:32.907Z,5.80
2018-12-18T01:40:00.451Z,5.80
2018-12-18T01:42:28.058Z,5.80
2018-12-18T01:44:55.614Z,5.80
2018-12-18T01:47:23.186Z,5.80
2018-12-18T01:49:50.779Z,5.80
2018-12-18T01:52:18.378Z,5.80
2018-12-18T01:54:45.991Z,5.80
2018-12-18T01:57:13.578Z,5.80
2018-12-18T01:59:41.137Z,5.80
2018-12-18T02:02:08.768Z,5.80
2018-12-18T02:04:36.461Z,5.80
2018-12-18T02:07:04.080Z,5.80
2018-12-18T02:09:33.148Z,5.80
2018-12-18T02:12:00.720Z,5.80
2018-12-18T02:14:28.276Z,5.80
2018-12-18T02:16:55.867Z,5.80
2018-12-18T02:19:23.419Z,5.80
2018-12-18T02:21:51.083Z,5.80
2018-12-18T02:24:19.309Z,5.80
2018-12-18T02:26:46.855Z,5.80
2018-12-18T02:29:14.412Z,5.80
2018-12-18T02:31:41.992Z,5.90
2018-12-18T02:34:13.663Z,5.90
2018-12-18T02:36:39.150Z,5.90
2018-12-18T02:39:06.695Z,5.90
2018-12-18T02:41:34.269Z,5.90
2018-12-18T02:44:01.936Z,5.90
2018-12-18T02:46:29.475Z,5.90
2018-12-18T02:48:57.028Z,5.90
2018-12-18T02:51:24.607Z,5.90
2018-12-18T02:53:52.178Z,5.90
2018-12-18T02:56:19.733Z,5.90
2018-12-18T02:58:47.334Z,5.90
2018-12-18T03:01:14.888Z,5.90
2018-12-18T03:03:42.440Z,5.90
2018-12-18T03:06:10.078Z,6.00
2018-12-18T03:08:37.671Z,5.90
2018-12-18T03:11:05.275Z,6.00
2018-12-18T03:13:32.827Z,5.90
2018-12-18T03:16:00.422Z,5.90
2018-12-18T03:18:27.976Z,5.90
2018-12-18T03:20:55.523Z,5.90
2018-12-18T03:23:23.117Z,5.90
2018-12-18T03:25:50.740Z,5.90
2018-12-18T03:28:18.283Z,5.90
2018-12-18T03:30:45.881Z,5.90
2018-12-18T03:33:13.546Z,5.90
2018-12-18T03:35:41.102Z,5.90
2018-12-18T03:38:08.687Z,6.00
2018-12-18T03:40:36.288Z,6.00
2018-12-18T03:43:03.858Z,6.00
2018-12-18T03:45:31.406Z,6.00
2018-12-18T03:47:59.004Z,6.00
2018-12-18T03:50:26.558Z,6.00
2018-12-18T03:52:54.118Z,5.90
2018-12-18T03:55:21.720Z,6.00
2018-12-18T03:57:49.283Z,6.00
2018-12-18T04:00:16.927Z,6.00
2018-12-18T04:02:44.530Z,6.00
2018-12-18T04:05:12.076Z,5.90
2018-12-18T04:07:39.631Z,5.90
2018-12-18T04:10:07.299Z,5.90
2018-12-18T04:12:34.914Z,5.90
2018-12-18T04:15:02.547Z,5.90
2018-12-18T04:17:30.144Z,5.90
2018-12-18T04:19:57.979Z,5.90
2018-12-18T04:22:25.531Z,5.90
2018-12-18T04:24:53.154Z,5.90
2018-12-18T04:27:20.717Z,5.90
2018-12-18T04:32:21.198Z,5.90
2018-12-18T04:34:48.742Z,5.90
2018-12-18T04:37:16.285Z,5.90
2018-12-18T04:39:44.770Z,5.90
2018-12-18T04:42:12.318Z,5.80
2018-12-18T04:44:39.863Z,5.80
2018-12-18T04:47:07.458Z,5.80
2018-12-18T04:49:35.017Z,5.80
2018-12-18T04:52:02.564Z,5.80
2018-12-18T04:54:30.164Z,5.80
2018-12-18T04:56:57.711Z,5.80
2018-12-18T04:59:26.349Z,5.80
2018-12-18T05:01:53.975Z,5.80
2018-12-18T05:04:21.521Z,5.80
2018-12-18T05:06:49.073Z,5.80
2018-12-18T05:09:16.826Z,5.70
2018-12-18T05:11:44.366Z,5.70
2018-12-18T05:14:11.953Z,5.70
2018-12-18T05:16:39.547Z,5.70
2018-12-18T05:19:07.202Z,5.70
2018-12-18T05:21:34.754Z,5.70
2018-12-18T05:24:02.355Z,5.70
2018-12-18T05:26:29.919Z,5.70
2018-12-18T05:28:57.463Z,5.70
2018-12-18T05:31:25.055Z,5.70
2018-12-18T05:33:52.687Z,5.70
2018-12-18T05:36:20.234Z,5.60
2018-12-18T05:38:47.778Z,5.60
2018-12-18T05:41:15.393Z,5.60
2018-12-18T05:43:42.943Z,5.60
2018-12-18T05:46:10.523Z,5.60
2018-12-18T05:48:38.111Z,5.60
2018-12-18T05:51:05.667Z,5.50
2018-12-18T05:53:33.251Z,5.60
2018-12-18T05:56:00.804Z,5.60
2018-12-18T05:58:28.347Z,5.60
2018-12-18T06:00:55.922Z,5.60
2018-12-18T06:03:23.467Z,5.60
2018-12-18T06:05:51.051Z,5.70
2018-12-18T06:08:18.600Z,5.60
2018-12-18T06:10:46.645Z,5.60
2018-12-18T06:13:14.243Z,5.60
2018-12-18T06:15:41.786Z,5.60
2018-12-18T06:18:09.332Z,5.60
2018-12-18T06:20:36.985Z,5.60
2018-12-18T06:23:04.531Z,5.60
2018-12-18T06:25:32.076Z,5.60
2018-12-18T06:27:59.667Z,5.60
2018-12-18T06:30:27.215Z,5.60
2018-12-18T06:32:54.757Z,5.60
2018-12-18T06:35:23.079Z,5.50
2018-12-18T06:37:50.621Z,5.50
2018-12-18T06:40:18.163Z,5.50
2018-12-18T06:42:45.766Z,5.50
2018-12-18T06:45:13.321Z,5.50
2018-12-18T06:47:40.871Z,5.50
2018-12-18T06:50:08.583Z,5.50
2018-12-18T06:52:36.135Z,5.50
2018-12-18T06:55:04.111Z,5.50
2018-12-18T06:57:31.688Z,5.50
2018-12-18T06:59:59.350Z,5.50
2018-12-18T07:02:26.899Z,5.50
2018-12-18T07:04:54.439Z,5.50
2018-12-18T07:07:22.016Z,5.50
2018-12-18T07:09:49.570Z,5.50
2018-12-18T07:12:17.162Z,5.50
2018-12-18T07:14:44.710Z,5.50
2018-12-18T07:17:12.255Z,5.50
2018-12-18T07:19:39.891Z,5.50
2018-12-18T07:22:07.523Z,5.50
2018-12-18T07:24:35.090Z,5.50
2018-12-18T07:27:02.665Z,5.60
2018-12-18T07:29:30.216Z,5.60
2018-12-18T07:31:57.795Z,5.60
2018-12-18T07:34:25.347Z,5.60
2018-12-18T07:36:52.901Z,5.60
2018-12-18T07:39:20.485Z,5.60
2018-12-18T07:41:48.033Z,5.70
2018-12-18T07:44:15.571Z,5.70
2018-12-18T07:46:43.152Z,5.70
2018-12-18T07:49:10.709Z,5.70
2018-12-18T07:51:38.555Z,5.70
2018-12-18T07:54:06.155Z,5.70
2018-12-18T07:56:33.694Z,5.70
2018-12-18T07:59:01.244Z,5.70
2018-12-18T08:01:28.839Z,5.70
2018-12-18T08:03:56.382Z,5.80
2018-12-18T08:06:24.501Z,5.80
2018-12-18T08:08:52.109Z,5.80
2018-12-18T08:11:19.654Z,5.80
2018-12-18T08:13:47.191Z,5.80
2018-12-18T08:16:14.780Z,5.90
2018-12-18T08:18:42.331Z,5.90
2018-12-18T08:21:09.945Z,5.90
2018-12-18T08:23:37.522Z,5.90
2018-12-18T08:26:05.071Z,5.90
2018-12-18T08:28:32.617Z,5.90
2018-12-18T08:31:00.250Z,6.00
2018-12-18T08:33:27.834Z,6.00
2018-12-18T08:35:55.387Z,6.10
2018-12-18T08:38:22.927Z,6.10
2018-12-18T08:40:50.516Z,6.10
2018-12-18T08:43:18.068Z,6.10
2018-12-18T08:45:45.626Z,6.10
2018-12-18T08:48:13.219Z,6.20
2018-12-18T08:50:40.768Z,6.20
2018-12-18T08:53:08.312Z,6.20
2018-12-18T08:55:35.915Z,6.20
2018-12-18T08:58:03.464Z,6.10
2018-12-18T09:00:31.014Z,6.10
2018-12-18T09:02:58.598Z,6.10
2018-12-18T09:05:26.207Z,6.10
2018-12-18T09:07:53.746Z,6.10
2018-12-18T09:10:21.327Z,6.10
2018-12-18T09:12:48.875Z,6.10
2018-12-18T09:15:22.144Z,6.20
2018-12-18T09:17:49.853Z,6.20
2018-12-18T09:20:17.417Z,6.20
2018-12-18T09:22:45.007Z,6.20
2018-12-18T09:25:12.560Z,6.20
2018-12-18T09:27:40.225Z,6.20
2018-12-18T09:30:08.963Z,6.20
2018-12-18T09:32:36.499Z,6.20
2018-12-18T09:35:04.590Z,6.30
2018-12-18T09:37:32.179Z,6.30
2018-12-18T09:39:59.739Z,6.40
2018-12-18T09:42:32.959Z,6.40
2018-12-18T09:45:00.498Z,6.50
2018-12-18T09:47:28.044Z,6.50
2018-12-18T09:49:56.131Z,6.50
2018-12-18T09:52:23.662Z,6.50
2018-12-18T09:54:51.242Z,6.60
2018-12-18T09:57:24.463Z,6.60
2018-12-18T09:59:52.044Z,6.60
2018-12-18T10:02:19.584Z,6.60
2018-12-18T10:04:47.127Z,6.60
2018-12-18T10:07:14.714Z,6.60
2018-12-18T10:09:42.260Z,6.70
2018-12-18T10:12:09.804Z,6.70
2018-12-18T10:14:37.392Z,6.70
2018-12-18T10:17:04.931Z,6.70
2018-12-18T10:19:32.470Z,6.70
2018-12-18T10:22:00.055Z,6.70
2018-12-18T10:24:27.595Z,6.70
2018-12-18T10:26:55.152Z,6.70
2018-12-18T10:29:22.733Z,6.70
2018-12-18T10:31:50.273Z,6.70
2018-12-18T10:34:17.822Z,6.70
2018-12-18T10:36:45.408Z,6.80
2018-12-18T10:39:12.943Z,6.80
2018-12-18T10:41:40.478Z,6.80
2018-12-18T10:44:08.058Z,6.80
2018-12-18T10:46:35.663Z,6.70
2018-12-18T10:49:03.266Z,6.80
2018-12-18T10:51:30.912Z,6.80
2018-12-18T10:53:58.455Z,6.70
2018-12-18T10:56:25.995Z,6.70
2018-12-18T10:58:53.582Z,6.70
2018-12-18T11:04:31.884Z,6.80
2018-12-18T11:06:59.423Z,6.80
2018-12-18T11:09:27.419Z,6.80
2018-12-18T11:11:55.009Z,6.90
2018-12-18T11:14:22.560Z,6.90
2018-12-18T11:16:50.130Z,6.90
2018-12-18T11:19:17.717Z,7.00
2018-12-18T11:21:45.261Z,6.90
2018-12-18T11:24:13.051Z,7.00
2018-12-18T11:26:40.631Z,7.00
2018-12-18T11:29:08.235Z,7.00
2018-12-18T11:31:35.779Z,7.00
2018-12-18T11:34:03.363Z,7.00
2018-12-18T11:36:30.963Z,7.00
2018-12-18T11:38:58.527Z,6.90
2018-12-18T11:41:26.179Z,6.90
2018-12-18T11:43:53.897Z,6.90
2018-12-18T11:46:21.540Z,6.90
2018-12-18T11:48:49.135Z,6.90
2018-12-18T11:51:16.755Z,6.90
2018-12-18T11:53:44.317Z,6.90
2018-12-18T11:56:11.898Z,6.90
2018-12-18T11:58:39.447Z,6.90
2018-12-18T12:01:06.995Z,6.90
2018-12-18T12:03:34.700Z,7.00
2018-12-18T12:06:02.302Z,7.00
2018-12-18T12:08:29.868Z,7.10
2018-12-18T12:10:58.086Z,7.10
2018-12-18T12:13:25.633Z,7.10
2018-12-18T12:15:53.171Z,7.00
2018-12-18T12:18:20.754Z,7.00
2018-12-18T12:20:48.299Z,7.00
2018-12-18T12:23:15.958Z,7.10
2018-12-18T12:25:43.546Z,7.10
2018-12-18T12:28:11.088Z,7.10
2018-12-18T12:30:38.647Z,7.10
2018-12-18T12:33:06.221Z,7.10
2018-12-18T12:35:33.835Z,7.10
2018-12-18T12:38:01.374Z,7.10
2018-12-18T12:40:29.705Z,7.10
2018-12-18T12:42:57.416Z,7.20
2018-12-18T12:45:24.951Z,7.20
2018-12-18T12:47:52.588Z,7.20
2018-12-18T12:50:20.380Z,7.20
2018-12-18T12:52:47.911Z,7.20
2018-12-18T12:55:15.488Z,7.20
2018-12-18T12:57:43.024Z,7.20
2018-12-18T13:00:10.796Z,7.20
2018-12-18T13:02:38.375Z,7.20
2018-12-18T13:05:06.048Z,7.10
2018-12-18T13:07:33.582Z,7.10
2018-12-18T13:10:01.155Z,7.10
2018-12-18T13:12:29.881Z,7.10
2018-12-18T13:14:57.483Z,7.00
2018-12-18T13:17:25.042Z,7.00
2018-12-18T13:19:52.622Z,7.00
2018-12-18T13:22:20.163Z,7.00
2018-12-18T13:24:47.787Z,7.00
2018-12-18T13:27:15.368Z,7.00
2018-12-18T13:29:43.095Z,7.00
2018-12-18T13:32:10.641Z,7.00
2018-12-18T13:34:38.211Z,7.00
2018-12-18T13:37:05.787Z,7.00
2018-12-18T13:39:33.399Z,6.90
2018-12-18T13:42:00.978Z,6.90
2018-12-18T13:44:29.226Z,6.90
2018-12-18T13:46:56.767Z,6.90
2018-12-18T13:49:24.373Z,6.90
2018-12-18T13:51:51.926Z,6.90
2018-12-18T13:54:19.466Z,6.90
2018-12-18T13:56:47.054Z,6.90
2018-12-18T13:59:14.600Z,6.90
2018-12-18T14:01:42.188Z,6.90
2018-12-18T14:04:09.740Z,6.90
2018-12-18T14:06:37.286Z,6.90
2018-12-18T14:09:06.889Z,6.90
2018-12-18T14:11:34.423Z,6.80
2018-12-18T14:14:02.027Z,6.80
2018-12-18T14:16:29.629Z,6.80
2018-12-18T14:18:57.174Z,6.70
2018-12-18T14:21:24.725Z,6.70
2018-12-18T14:23:52.309Z,6.70
2018-12-18T14:26:19.911Z,6.70
2018-12-18T14:28:47.450Z,6.60
2018-12-18T14:31:15.031Z,6.60
2018-12-18T14:33:42.575Z,6.50
2018-12-18T14:36:10.112Z,6.60
2018-12-18T14:38:37.706Z,6.60
2018-12-18T14:41:05.255Z,6.60
2018-12-18T14:43:32.803Z,6.70
2018-12-18T14:46:00.420Z,6.80
2018-12-18T14:48:27.955Z,6.90
2018-12-18T14:50:55.494Z,7.00
2018-12-18T14:53:23.077Z,7.10
2018-12-18T14:55:50.626Z,7.10
2018-12-18T14:58:18.171Z,7.10
2018-12-18T15:00:45.770Z,7.10
2018-12-18T15:03:13.315Z,7.00
2018-12-18T15:05:40.859Z,6.90
2018-12-18T15:08:08.608Z,6.90
2018-12-18T15:10:36.249Z,6.80
2018-12-18T15:13:03.795Z,6.70
2018-12-18T15:15:31.379Z,6.70
2018-12-18T15:17:59.843Z,6.60
2018-12-18T15:20:27.393Z,6.60
2018-12-18T15:22:54.984Z,6.70
2018-12-18T15:25:22.556Z,6.70
2018-12-18T15:27:50.102Z,6.60
2018-12-18T15:30:17.740Z,6.60
2018-12-18T15:32:45.359Z,6.60
2018-12-18T15:35:12.902Z,6.60
2018-12-18T15:37:40.495Z,6.60
2018-12-18T15:40:08.046Z,6.60
2018-12-18T15:42:35.586Z,6.60
2018-12-18T15:45:03.501Z,6.60
2018-12-18T15:47:31.068Z,6.60
2018-12-18T15:49:58.829Z,6.50
2018-12-18T15:52:26.456Z,6.50
2018-12-18T15:54:54.038Z,6.40
2018-12-18T15:57:21.587Z,6.50
2018-12-18T15:59:49.131Z,6.50
2018-12-18T16:02:16.715Z,6.40
2018-12-18T16:04:44.291Z,6.50
2018-12-18T16:07:16.163Z,6.40
2018-12-18T16:09:41.449Z,6.40
2018-12-18T16:12:09.011Z,6.40
2018-12-18T16:14:36.555Z,6.40
2018-12-18T16:17:04.152Z,6.40
2018-12-18T16:19:32.055Z,6.40
2018-12-18T16:21:59.607Z,6.40
2018-12-18T16:24:27.195Z,6.40
2018-12-18T16:26:54.781Z,6.40
2018-12-18T16:29:22.463Z,6.30
2018-12-18T16:31:50.059Z,6.40
2018-12-18T16:34:17.602Z,6.30
2018-12-18T16:36:45.138Z,6.30
2018-12-18T16:39:12.861Z,6.20
2018-12-18T16:41:40.402Z,6.30
2018-12-18T16:44:07.951Z,6.30
2018-12-18T16:46:35.949Z,6.30
2018-12-18T16:49:03.611Z,6.30
2018-12-18T16:51:31.530Z,6.30
2018-12-18T16:53:59.533Z,6.30
2018-12-18T16:56:27.209Z,6.30
2018-12-18T16:58:55.178Z,6.20
2018-12-18T17:01:22.814Z,6.20
2018-12-18T17:03:50.512Z,6.20
2018-12-18T17:06:18.473Z,6.20
2018-12-18T17:08:46.075Z,6.20
2018-12-18T17:11:13.628Z,6.10
2018-12-18T17:13:41.182Z,6.10
2018-12-18T17:16:08.814Z,6.00
2018-12-18T17:18:36.471Z,6.00
2018-12-18T17:21:04.020Z,6.00
2018-12-18T17:23:31.606Z,6.00
2018-12-18T17:25:59.165Z,5.90
2018-12-18T17:28:26.711Z,5.80
2018-12-18T17:30:54.300Z,5.80
2018-12-18T17:33:22.119Z,5.80
2018-12-18T17:35:49.718Z,5.70
2018-12-18T17:38:17.463Z,5.70
2018-12-18T17:40:45.375Z,5.70
2018-12-18T17:43:12.985Z,5.60
2018-12-18T17:45:40.880Z,5.60
2018-12-18T17:48:08.511Z,5.60
2018-12-18T17:50:36.512Z,5.50
2018-12-18T17:53:04.128Z,5.50
2018-12-18T17:55:31.674Z,5.50
2018-12-18T17:57:59.348Z,5.40
2018-12-18T18:00:27.136Z,5.40
2018-12-18T18:02:54.895Z,5.40
2018-12-18T18:05:22.444Z,5.40
2018-12-18T18:07:50.034Z,5.30
2018-12-18T18:10:17.603Z,5.30
2018-12-18T18:12:45.325Z,5.20
2018-12-18T18:15:13.631Z,5.10
2018-12-18T18:17:41.167Z,5.10
2018-12-18T18:20:09.113Z,5.10
2018-12-18T18:22:37.061Z,5.10
2018-12-18T18:25:05.320Z,5.00
2018-12-18T18:27:33.082Z,5.00
2018-12-18T18:30:00.692Z,4.90
2018-12-18T18:32:28.927Z,4.90
2018-12-18T18:34:56.464Z,4.90
2018-12-18T18:37:24.388Z,4.80
2018-12-18T18:39:52.149Z,4.80
2018-12-18T18:42:19.733Z,4.70
2018-12-18T18:44:47.327Z,4.70
2018-12-18T18:47:15.348Z,4.60
2018-12-18T18:49:43.401Z,4.60
2018-12-18T18:52:11.007Z,4.60
2018-12-18T18:54:38.850Z,4.50
2018-12-18T18:57:07.473Z,4.50
2018-12-18T18:59:35.122Z,4.50
2018-12-18T19:02:02.943Z,4.50
2018-12-18T19:04:30.558Z,4.60
2018-12-18T19:06:58.372Z,4.60
2018-12-18T19:09:26.056Z,4.60
2018-12-18T19:11:53.600Z,4.60
2018-12-18T19:14:21.218Z,4.50
2018-12-18T19:16:49.116Z,4.50
2018-12-18T19:19:16.790Z,4.50
2018-12-18T19:21:44.380Z,4.40
2018-12-18T19:24:12.307Z,4.40
2018-12-18T19:26:40.045Z,4.30
2018-12-18T19:29:07.843Z,4.30
2018-12-18T19:31:35.403Z,4.30
2018-12-18T19:34:02.935Z,4.20
2018-12-18T19:36:30.604Z,4.20
2018-12-18T19:38:58.158Z,4.10
2018-12-18T19:41:25.728Z,4.10
2018-12-18T19:43:53.310Z,4.10
2018-12-18T19:46:21.374Z,4.00
2018-12-18T19:48:49.348Z,4.00
2018-12-18T19:51:16.939Z,4.00
2018-12-18T19:53:44.486Z,4.00
2018-12-18T19:56:12.055Z,4.00
2018-12-18T19:58:39.640Z,4.00
2018-12-18T20:01:07.956Z,4.00
2018-12-18T20:03:35.514Z,4.00
2018-12-18T20:06:03.133Z,3.90
2018-12-18T20:08:30.675Z,3.90
2018-12-18T20:10:58.226Z,3.90
2018-12-18T20:13:25.813Z,3.90
2018-12-18T20:15:53.371Z,3.80
2018-12-18T20:18:20.930Z,3.90
2018-12-18T20:20:48.526Z,3.90
2018-12-18T20:23:16.069Z,3.80
2018-12-18T20:25:43.993Z,3.80
2018-12-18T20:28:11.604Z,3.80
2018-12-18T20:30:39.287Z,3.70
2018-12-18T20:33:06.833Z,3.80
2018-12-18T20:35:34.422Z,3.70
2018-12-18T20:38:01.978Z,3.70
2018-12-18T20:40:29.535Z,3.60
2018-12-18T20:42:57.130Z,3.60
2018-12-18T20:45:24.677Z,3.50
2018-12-18T20:47:52.258Z,3.50
2018-12-18T20:50:20.227Z,3.50
2018-12-18T20:52:47.779Z,3.50
2018-12-18T20:55:15.325Z,3.50
2018-12-18T20:57:42.935Z,3.40
2018-12-18T21:00:10.727Z,3.40
2018-12-18T21:02:38.541Z,3.40
2018-12-18T21:05:06.196Z,3.40
2018-12-18T21:07:33.759Z,3.40
2018-12-18T21:10:02.279Z,3.40
2018-12-18T21:12:29.885Z,3.40
2018-12-18T21:15:00.728Z,3.30
2018-12-18T21:17:27.005Z,3.30
2018-12-18T21:19:54.763Z,3.30
2018-12-18T21:22:22.320Z,3.30
2018-12-18T21:24:50.387Z,3.30
2018-12-18T21:27:17.986Z,3.30
2018-12-18T21:29:45.543Z,3.20
2018-12-18T21:32:13.099Z,3.20
2018-12-18T21:34:40.699Z,3.20
2018-12-18T21:37:08.632Z,3.20
2018-12-18T21:39:36.177Z,3.20
2018-12-18T21:42:03.911Z,3.10
2018-12-18T21:44:31.549Z,3.10
2018-12-18T21:46:59.094Z,3.10
2018-12-18T21:49:27.115Z,3.10
2018-12-18T21:51:54.694Z,3.10
2018-12-18T21:54:22.341Z,3.10
2018-12-18T21:56:49.926Z,3.10
2018-12-18T21:59:17.467Z,3.10
2018-12-18T22:01:45.006Z,3.10
2018-12-18T22:04:12.591Z,3.00
2018-12-18T22:06:40.139Z,3.00
2018-12-18T22:09:07.760Z,3.00
2018-12-18T22:11:35.347Z,3.00
2018-12-18T22:14:02.892Z,3.00
2018-12-18T22:16:30.429Z,3.00
2018-12-18T22:18:58.023Z,3.00
2018-12-18T22:21:25.564Z,3.00
2018-12-18T22:23:53.107Z,3.00
2018-12-18T22:26:20.687Z,3.00
2018-12-18T22:28:48.227Z,3.00
2018-12-18T22:31:15.767Z,2.90
2018-12-18T22:33:43.346Z,2.90
2018-12-18T22:36:10.882Z,2.90
2018-12-18T22:38:43.571Z,2.90
2018-12-18T22:41:08.068Z,2.90
2018-12-18T22:43:35.611Z,2.90
2018-12-18T22:46:03.146Z,2.90
2018-12-18T22:48:30.723Z,2.80
2018-12-18T22:50:58.273Z,2.80
2018-12-18T22:53:25.813Z,2.80
2018-12-18T22:55:53.420Z,2.80
2018-12-18T22:58:20.959Z,2.80
2018-12-18T23:00:53.519Z,2.80
2018-12-18T23:03:21.259Z,2.70
2018-12-18T23:05:48.803Z,2.70
2018-12-18T23:08:16.381Z,2.70
2018-12-18T23:10:43.941Z,2.70
2018-12-18T23:13:13.439Z,2.70
2018-12-18T23:15:41.147Z,2.70
2018-12-18T23:18:08.695Z,2.70
2018-12-18T23:20:36.246Z,2.60
2018-12-18T23:23:03.830Z,2.60
2018-12-18T23:25:31.388Z,2.70
2018-12-18T23:27:58.934Z,2.70
2018-12-18T23:30:26.539Z,2.60
2018-12-18T23:32:54.098Z,2.70
2018-12-18T23:35:22.159Z,2.60
2018-12-18T23:37:49.750Z,2.60
2018-12-18T23:40:17.294Z,2.60
2018-12-18T23:42:44.855Z,2.60
2018-12-18T23:45:12.442Z,2.60
2018-12-18T23:47:40.746Z,2.60
2018-12-18T23:50:08.354Z,2.60
2018-12-18T23:52:35.983Z,2.60
2018-12-18T23:55:04.558Z,2.50
2018-12-18T23:57:32.156Z,2.50
2018-12-18T23:59:59.751Z,2.50
